Easterwood Field
KCLL : rendu visible

Aérodrome :











RETROUVEZ-NOUS SUR...

 
LOGIN :

S'inscrire | Disclaimer

   EN    FR    IT 

 









Légende :    VFR   VFR Marginal   IFR   IFR Intensif   IFR Très Intensif
Visi : 
Plafond : 
>= 8 km
>= 3000ft
5 à 8 km
1000 à 3000 ft
1500m à 5 km
500 à 1000 ft
800 à 1500m
200 à 500 ft
< 800m
< 200 ft
Symboles :   Orages  Brouillard  Fortes neiges  Fortes précipitations  Vent > 20 kt






- Altitude de l'aérodrome : 320 ft
- Code IATA : CLL


KCLL - Easterwood Field

DERNIER METAR :
  • 010453Z AUTO 36004KT 10SM CLR 13/09 A3005 RMK AO2 SLP172 T01280094

METARs EXPIRÉS :
  • 010353Z AUTO 00000KT 10SM CLR 14/10 A3006 RMK AO2 SLP176 T01440100
  • 010253Z AUTO 02005KT 10SM CLR 14/10 A3006 RMK AO2 SLP176 T01440100 53015

TAF KCLL
Valide du 01 à 00h jusqu'au 02 à 00h UTC


312320Z 0100/0124 36008KT P6SM FEW050
FM010300 VRB03KT P6SM FEW250
FM011400 12007KT P6SM FEW250
FM011800 16010KT P6SM FEW250



MET'MAP, la Météo Aéronautique d'un coup d'oeil ! - Copyright ORBIFLY Décembre 2007 - Disclaimer

ORBIFLY MET'MAP TEAM :

Programmation & Développement : Alexandra Zaïnal
Sur une idée originale de : Baudouin d'Aumeries
Assistance à la programmation : Marc-Olivier Méhu
Soutien technique & logistique : Manuel Goepfert

Contact : metmap@orbifly.com




SOURCES & CREDITS :

   NOAA       Earth
Advisory